• Join FlightAware (Why Join?)
  • Login
  • US Flag 
01:58PM EDT


 

Airport Tracker/Info


-or-


 

Live Flight TrackerFlight Track Log ✈ TAM3785 ✈ 08-May-2013 ✈ SBFZ / FOR - SBBR / BSB

Flight Track Log - Related Links

Times and Time Zones

All times are in EDT time to prevent confusion due to time zone crossing. See the TAM3785 flight status page for this flight to view local times or setup timezone preferences in your user account.

Time Position Orientation Groundspeed Altitude Reporting Facility
EDT Latitude Longitude Course Direction KTS MPH feet Rate Location/Type
07:40PM -5.3302 -39.6969 217° Southwest  Level Estimated
07:41PM -5.4119 -39.7583 217° Southwest  Level Estimated
07:42PM -5.4936 -39.8198 217° Southwest  Level Estimated
07:43PM -5.5753 -39.8812 217° Southwest  Level Estimated
07:44PM -5.6570 -39.9427 217° Southwest  Level Estimated
07:45PM -5.7387 -40.0042 217° Southwest  Level Estimated
07:46PM -5.8204 -40.0657 217° Southwest  Level Estimated
07:47PM -5.9021 -40.1272 217° Southwest  Level Estimated
07:48PM -5.9838 -40.1888 217° Southwest  Level Estimated
07:49PM -6.0655 -40.2504 217° Southwest  Level Estimated
07:50PM -6.1471 -40.3119 217° Southwest  Level Estimated
07:51PM -6.2288 -40.3736 217° Southwest  Level Estimated
07:52PM -6.3105 -40.4352 217° Southwest  Level Estimated
07:53PM -6.3921 -40.4968 217° Southwest  Level Estimated
07:54PM -6.4737 -40.5585 217° Southwest  Level Estimated
07:55PM -6.5554 -40.6202 217° Southwest  Level Estimated
07:56PM -6.6370 -40.6819 217° Southwest  Level Estimated
07:57PM -6.7186 -40.7436 217° Southwest  Level Estimated
07:58PM -6.8002 -40.8053 217° Southwest  Level Estimated
07:59PM -6.8818 -40.8671 217° Southwest  Level Estimated
08:00PM -6.9634 -40.9289 217° Southwest  Level Estimated
08:01PM -7.0450 -40.9907 217° Southwest  Level Estimated
08:02PM -7.1266 -41.0525 217° Southwest  Level Estimated
08:03PM -7.2081 -41.1144 217° Southwest  Level Estimated
08:04PM -7.2897 -41.1763 217° Southwest  Level Estimated
08:05PM -7.3713 -41.2382 217° Southwest  Level Estimated
08:06PM -7.4528 -41.3001 217° Southwest  Level Estimated
08:07PM -7.5343 -41.3620 217° Southwest  Level Estimated
08:08PM -7.6159 -41.4240 217° Southwest  Level Estimated
08:09PM -7.6974 -41.4860 217° Southwest  Level Estimated
08:10PM -7.7789 -41.5480 217° Southwest  Level Estimated
08:11PM -7.8604 -41.6100 217° Southwest  Level Estimated
08:12PM -7.9419 -41.6721 217° Southwest  Level Estimated
08:13PM -8.0234 -41.7342 217° Southwest  Level Estimated
08:14PM -8.1048 -41.7963 217° Southwest  Level Estimated
08:15PM -8.1863 -41.8584 217° Southwest  Level Estimated
08:16PM -8.2677 -41.9206 217° Southwest  Level Estimated
08:17PM -8.3492 -41.9828 217° Southwest  Level Estimated
08:18PM -8.4306 -42.0450 217° Southwest  Level Estimated
08:19PM -8.5120 -42.1072 217° Southwest  Level Estimated
08:20PM -8.5934 -42.1695 217° Southwest  Level Estimated
08:21PM -8.6749 -42.2318 217° Southwest  Level Estimated
08:22PM -8.7562 -42.2941 217° Southwest  Level Estimated
08:23PM -8.8376 -42.3565 217° Southwest  Level Estimated
08:24PM -8.9190 -42.4188 217° Southwest  Level Estimated
08:25PM -9.0003 -42.4812 217° Southwest  Level Estimated
08:26PM -9.0817 -42.5437 217° Southwest  Level Estimated
08:27PM -9.1630 -42.6061 217° Southwest  Level Estimated
08:28PM -9.2444 -42.6686 217° Southwest  Level Estimated
08:29PM -9.3257 -42.7311 217° Southwest  Level Estimated
08:30PM -9.4070 -42.7937 217° Southwest  Level Estimated
08:31PM -9.4883 -42.8563 217° Southwest  Level Estimated
08:32PM -9.5696 -42.9189 217° Southwest  Level Estimated
08:33PM -9.6509 -42.9815 217° Southwest  Level Estimated
08:34PM -9.7321 -43.0442 217° Southwest  Level Estimated
08:35PM -9.8134 -43.1069 217° Southwest  Level Estimated
08:36PM -9.8946 -43.1696 217° Southwest  Level Estimated
08:37PM -9.9759 -43.2324 217° Southwest  Level Estimated
08:38PM -10.0571 -43.2952 217° Southwest  Level Estimated
08:39PM -10.1383 -43.3580 217° Southwest  Level Estimated
08:40PM -10.2195 -43.4208 217° Southwest  Level Estimated
08:41PM -10.3007 -43.4837 217° Southwest  Level Estimated
08:42PM -10.3818 -43.5466 217° Southwest  Level Estimated
08:43PM -10.4630 -43.6096 217° Southwest  Level Estimated
08:44PM -10.5442 -43.6726 217° Southwest  Level Estimated
08:45PM -10.6253 -43.7356 217° Southwest  Level Estimated
08:46PM -10.7064 -43.7986 217° Southwest  Level Estimated
08:47PM -10.7875 -43.8617 217° Southwest  Level Estimated
08:48PM -10.8686 -43.9248 217° Southwest  Level Estimated
08:49PM -10.9497 -43.9880 217° Southwest  Level Estimated
08:50PM -11.0308 -44.0512 217° Southwest  Level Estimated
08:51PM -11.1118 -44.1144 217° Southwest  Level Estimated
08:52PM -11.1929 -44.1777 217° Southwest  Level Estimated
08:53PM -11.2739 -44.2410 217° Southwest  Level Estimated
08:54PM -11.3549 -44.3043 217° Southwest  Level Estimated
08:55PM -11.4359 -44.3676 217° Southwest  Level Estimated
08:56PM -11.5169 -44.4310 217° Southwest  Level Estimated
08:57PM -11.5979 -44.4945 218° Southwest  Level Estimated
08:58PM -11.6788 -44.5579 218° Southwest  Level Estimated
08:59PM -11.7598 -44.6215 218° Southwest  Level Estimated
09:00PM -11.8407 -44.6850 218° Southwest  Level Estimated
09:01PM -11.9216 -44.7486 218° Southwest  Level Estimated
09:02PM -12.0026 -44.8122 218° Southwest  Level Estimated
09:03PM -12.0834 -44.8759 218° Southwest  Level Estimated
09:04PM -12.1643 -44.9396 218° Southwest  Level Estimated
09:05PM -12.2452 -45.0033 218° Southwest  Level Estimated
09:06PM -12.3260 -45.0671 218° Southwest  Level Estimated
09:07PM -12.4069 -45.1309 218° Southwest  Level Estimated
09:08PM -12.4877 -45.1948 218° Southwest  Level Estimated
09:09PM -12.5685 -45.2587 218° Southwest  Level Estimated
09:10PM -12.6493 -45.3226 218° Southwest  Level Estimated
09:11PM -12.7300 -45.3866 218° Southwest  Level Estimated
09:12PM -12.8108 -45.4506 218° Southwest  Level Estimated
09:13PM -12.8915 -45.5147 218° Southwest  Level Estimated
09:14PM -12.9723 -45.5788 218° Southwest  Level Estimated
09:15PM -13.0530 -45.6429 218° Southwest  Level Estimated
09:16PM -13.1337 -45.7071 218° Southwest  Level Estimated
09:17PM -13.2143 -45.7713 218° Southwest  Level Estimated
09:18PM -13.2950 -45.8356 218° Southwest  Level Estimated
09:19PM -13.3757 -45.8999 218° Southwest  Level Estimated
09:20PM -13.4563 -45.9643 218° Southwest  Level Estimated
09:21PM -13.5369 -46.0287 218° Southwest  Level Estimated
09:22PM -13.6175 -46.0931 218° Southwest  Level Estimated
09:23PM -13.6981 -46.1576 218° Southwest  Level Estimated
09:24PM -13.7786 -46.2221 218° Southwest  Level Estimated
09:25PM -13.8592 -46.2867 218° Southwest  Level Estimated
09:26PM -13.9397 -46.3513 218° Southwest  Level Estimated
09:27PM -14.0202 -46.4160 218° Southwest  Level Estimated
09:28PM -14.1007 -46.4807 218° Southwest  Level Estimated
09:29PM -14.1812 -46.5454 218° Southwest  Level Estimated
09:30PM -14.2617 -46.6102 218° Southwest  Level Estimated
09:31PM -14.3421 -46.6751 218° Southwest  Level Estimated
09:32PM -14.4225 -46.7400 218° Southwest  Level Estimated
09:33PM -14.5029 -46.8049 218° Southwest  Level Estimated
09:34PM -14.5833 -46.8699 218° Southwest  Level Estimated
09:35PM -14.6637 -46.9349 218° Southwest  Level Estimated
09:36PM -14.7441 -47.0000 218° Southwest  Level Estimated
09:37PM -14.8244 -47.0651 218° Southwest  Level Estimated
09:38PM -14.9047 -47.1303 218° Southwest  Level Estimated
09:39PM -14.9850 -47.1955 218° Southwest  Level Estimated
09:40PM -15.0653 -47.2608 218° Southwest  Level Estimated
09:41PM -15.1456 -47.3262 218° Southwest  Level Estimated
09:42PM -15.2258 -47.3915 218° Southwest  Level Estimated
09:43PM -15.3060 -47.4570 218° Southwest  Level Estimated
09:44PM -15.3862 -47.5224 218° Southwest  Level Estimated
09:45PM -15.4664 -47.5880 218° Southwest  Level Estimated
09:46PM -15.5466 -47.6535 218° Southwest  Level Estimated
09:47PM -15.6267 -47.7192 218° Southwest  Level Estimated
09:48PM -15.7069 -47.7849 218° Southwest  Level Estimated
09:49PM -15.7870 -47.8506 218° Southwest  Level Estimated
09:50PM -15.8626 -47.9127 218° Southwest  Level Estimated
09:51PM -15.8626 -47.9127 128° Southeast  Level Estimated
09:52PM -15.8626 -47.9127 128° Southeast  Level Estimated
09:53PM -15.8626 -47.9127 128° Southeast  Level Estimated
09:54PM -15.8626 -47.9127 128° Southeast  Level Estimated
09:55PM -15.8626 -47.9127 128° Southeast  Level Estimated
09:56PM -15.8626 -47.9127 128° Southeast  Level Estimated
09:57PM -15.8626 -47.9127 128° Southeast  Level Estimated
09:58PM -15.8626 -47.9127 128° Southeast  Level Estimated
09:59PM -15.8626 -47.9127 128° Southeast  Level Estimated
10:00PM -15.8626 -47.9127 128° Southeast  Level Estimated
10:01PM -15.8626 -47.9127 128° Southeast  Level Estimated
10:02PM -15.8626 -47.9127 128° Southeast  Level Estimated
10:03PM -15.8626 -47.9127 128° Southeast  Level Estimated
10:04PM -15.8626 -47.9127 128° Southeast  Level Estimated
10:05PM -15.8626 -47.9127 128° Southeast  Level Estimated
10:06PM -15.8626 -47.9127 128° Southeast  Level Estimated